Time;durP1;ratioP1;P1;durP2;ratioP2;P2;SDS_P1;SDS_P2;PMS_P1;PMS_P2;Temp;Humidity;BMP_temperature;BMP_pressure;BME280_temperature;BME280_humidity;BME280_pressure;Samples;Min_cycle;Max_cycle;Signal;HPM_P1;HPM_P2
2022/08/22 00:04:20;;;;;;;4.90;1.90;;;21.40;87.60;;;;;;10446188;28;20060;-63
2022/08/22 00:09:32;;;;;;;4.05;1.73;;;21.40;87.70;;;;;;10374059;28;20067;-63
2022/08/22 00:14:44;;;;;;;3.10;2.00;;;21.40;87.60;;;;;;10445281;28;20036;-63
2022/08/22 00:19:45;;;;;;;4.40;2.00;;;21.40;87.60;;;;;;10439362;28;20083;-62
2022/08/22 00:25:11;;;;;;;3.55;1.98;;;21.40;87.70;;;;;;10445012;28;20471;-63
2022/08/22 00:30:16;;;;;;;3.67;1.88;;;21.30;87.70;;;;;;10442437;28;20091;-62
2022/08/22 00:35:36;;;;;;;3.92;2.00;;;21.30;87.70;;;;;;10429472;28;20021;-63
2022/08/22 00:40:48;;;;;;;2.88;1.80;;;21.30;87.70;;;;;;10388764;28;20453;-62
2022/08/22 00:46:01;;;;;;;2.50;1.80;;;21.30;87.70;;;;;;10394133;28;20087;-62
2022/08/22 00:51:23;;;;;;;3.85;1.90;;;21.20;88.20;;;;;;10391756;28;20021;-61
2022/08/22 00:56:43;;;;;;;4.75;1.70;;;21.30;87.70;;;;;;10396466;28;20083;-63
2022/08/22 01:02:15;;;;;;;3.40;1.77;;;21.20;87.80;;;;;;10391917;28;20021;-63
2022/08/22 01:07:18;;;;;;;2.22;1.80;;;21.20;87.70;;;;;;10391288;28;20504;-63
2022/08/22 01:13:11;;;;;;;3.90;1.92;;;21.20;87.80;;;;;;10392991;28;20063;-63
2022/08/22 01:18:56;;;;;;;4.35;1.83;;;21.20;87.80;;;;;;10351647;28;20076;-63
2022/08/22 01:25:16;;;;;;;4.18;1.80;;;21.20;87.80;;;;;;10362937;28;20092;-63
2022/08/22 01:30:48;;;;;;;7.07;2.38;;;21.10;87.80;;;;;;10357474;28;20149;-62
2022/08/22 01:36:10;;;;;;;2.65;1.92;;;21.10;87.90;;;;;;10337450;28;20037;-63
2022/08/22 01:41:15;;;;;;;2.80;1.88;;;21.10;87.90;;;;;;10434144;28;20041;-63
2022/08/22 01:46:50;;;;;;;3.53;1.95;;;21.10;87.90;;;;;;10441163;28;20043;-63
2022/08/22 01:51:59;;;;;;;2.75;1.88;;;21.10;88.00;;;;;;10434243;28;20115;-62
2022/08/22 01:57:02;;;;;;;3.50;2.15;;;21.00;87.90;;;;;;10434509;28;20516;-62
2022/08/22 02:02:08;;;;;;;5.20;2.08;;;21.00;87.90;;;;;;10434137;28;20023;-62
2022/08/22 02:07:38;;;;;;;4.90;2.20;;;21.00;88.00;;;;;;10434333;28;20029;-62
2022/08/22 02:13:05;;;;;;;3.70;2.13;;;21.00;88.10;;;;;;10433203;28;20036;-62
2022/08/22 02:18:07;;;;;;;6.30;2.42;;;21.00;88.00;;;;;;10433679;28;20377;-62
2022/08/22 02:23:26;;;;;;;4.25;1.75;;;21.00;88.00;;;;;;10443931;28;20028;-63
2022/08/22 02:29:17;;;;;;;3.63;2.15;;;21.00;88.10;;;;;;10436582;28;20067;-62
2022/08/22 02:34:36;;;;;;;3.65;2.10;;;20.90;88.00;;;;;;10365524;28;20037;-63
2022/08/22 02:39:40;;;;;;;3.72;2.00;;;20.90;88.10;;;;;;10444756;28;20286;-63
2022/08/22 02:45:05;;;;;;;5.25;2.40;;;20.90;88.10;;;;;;10439206;28;20036;-63
2022/08/22 02:50:12;;;;;;;3.92;2.63;;;20.90;88.20;;;;;;10431087;28;20473;-62
2022/08/22 02:55:18;;;;;;;3.22;1.67;;;20.80;88.20;;;;;;10434194;28;20033;-63
2022/08/22 03:00:26;;;;;;;2.70;1.77;;;20.90;88.20;;;;;;10439755;28;20037;-62
2022/08/22 03:05:26;;;;;;;2.13;1.87;;;20.80;88.20;;;;;;10449019;28;20083;-63
2022/08/22 03:10:35;;;;;;;3.45;2.13;;;20.80;88.20;;;;;;10440094;28;20021;-62
2022/08/22 03:15:50;;;;;;;5.25;2.22;;;20.80;88.30;;;;;;10440851;28;20104;-63
2022/08/22 03:21:29;;;;;;;6.20;2.20;;;20.80;88.40;;;;;;10447997;28;20119;-62
2022/08/22 03:26:55;;;;;;;6.10;2.33;;;20.80;88.30;;;;;;10439521;28;20055;-62
2022/08/22 03:32:21;;;;;;;3.65;2.33;;;20.70;88.30;;;;;;10412379;28;20044;-63
2022/08/22 03:37:42;;;;;;;4.22;2.22;;;20.70;88.40;;;;;;10434949;28;20048;-63
2022/08/22 03:43:00;;;;;;;4.05;1.90;;;20.70;88.40;;;;;;10446487;28;20025;-63
2022/08/22 03:48:09;;;;;;;;;;;20.70;88.50;;;;;;10446263;28;20037;-63
2022/08/22 03:53:31;;;;;;;5.40;2.15;;;20.70;88.60;;;;;;10445987;28;19913;-63
2022/08/22 03:58:51;;;;;;;5.13;2.20;;;20.70;88.50;;;;;;10435195;28;20044;-62
2022/08/22 04:04:14;;;;;;;2.90;1.83;;;20.70;88.60;;;;;;10447760;28;20061;-62
2022/08/22 04:09:33;;;;;;;4.32;2.30;;;20.60;88.60;;;;;;10443694;28;20043;-62
2022/08/22 04:14:54;;;;;;;5.13;2.20;;;20.60;88.60;;;;;;10438344;28;20037;-63
2022/08/22 04:20:19;;;;;;;6.47;2.40;;;20.60;88.70;;;;;;10445943;28;20037;-62
2022/08/22 04:25:40;;;;;;;3.08;2.10;;;20.60;88.80;;;;;;10444691;28;20397;-63
2022/08/22 04:31:03;;;;;;;2.97;2.20;;;20.60;88.80;;;;;;10446914;28;20365;-62
2022/08/22 04:36:19;;;;;;;5.05;2.40;;;20.60;88.90;;;;;;10445534;28;20421;-63
2022/08/22 04:41:34;;;;;;;3.92;1.98;;;20.60;88.90;;;;;;10444733;28;20028;-62
2022/08/22 04:46:46;;;;;;;5.22;1.90;;;20.50;88.90;;;;;;10448391;28;20029;-62
2022/08/22 04:52:07;;;;;;;3.67;1.88;;;20.50;88.90;;;;;;10453817;28;20060;-63
2022/08/22 04:57:27;;;;;;;4.45;2.10;;;20.50;88.90;;;;;;10440712;28;20020;-62
2022/08/22 05:02:27;;;;;;;3.78;1.90;;;20.50;88.90;;;;;;10437629;28;20430;-63
2022/08/22 05:07:53;;;;;;;3.53;1.98;;;20.50;88.90;;;;;;10438232;28;20325;-62
2022/08/22 05:13:00;;;;;;;3.78;1.85;;;20.50;88.90;;;;;;10447649;28;20108;-61
2022/08/22 05:18:08;;;;;;;4.50;1.92;;;20.50;88.90;;;;;;10441505;28;20049;-62
2022/08/22 05:23:28;;;;;;;3.75;1.90;;;20.50;88.90;;;;;;10440391;28;20481;-62
2022/08/22 05:28:34;;;;;;;3.30;1.90;;;20.50;89.00;;;;;;10440028;28;20037;-62
2022/08/22 05:34:03;;;;;;;3.22;1.95;;;20.50;89.00;;;;;;10394715;28;20693;-62
2022/08/22 05:39:26;;;;;;;3.25;1.83;;;20.50;89.10;;;;;;10364407;28;20512;-61
2022/08/22 05:44:36;;;;;;;2.22;1.92;;;20.50;89.00;;;;;;10360407;28;20040;-60
2022/08/22 05:49:46;;;;;;;3.65;2.00;;;20.50;89.00;;;;;;10362704;28;20147;-61
2022/08/22 05:54:57;;;;;;;3.13;2.10;;;20.40;89.00;;;;;;10366329;28;20036;-63
2022/08/22 06:00:08;;;;;;;3.92;2.10;;;20.40;89.00;;;;;;10359349;28;20029;-61
2022/08/22 06:05:09;;;;;;;4.35;2.20;;;20.50;89.10;;;;;;10366197;28;20399;-61
2022/08/22 06:10:24;;;;;;;3.33;2.05;;;20.40;89.10;;;;;;10369649;28;20219;-62
2022/08/22 06:15:42;;;;;;;7.55;2.22;;;20.40;89.10;;;;;;10364211;28;20301;-62
2022/08/22 06:21:00;;;;;;;4.32;2.22;;;20.50;89.20;;;;;;10359838;28;20254;-61
2022/08/22 06:26:04;;;;;;;6.85;2.10;;;20.50;89.20;;;;;;10358913;28;20041;-61
2022/08/22 06:31:13;;;;;;;3.65;2.03;;;20.50;89.10;;;;;;10368138;28;20049;-61
2022/08/22 06:36:30;;;;;;;4.20;1.90;;;20.50;89.10;;;;;;10354302;28;20041;-60
2022/08/22 06:41:37;;;;;;;4.33;2.17;;;20.50;89.10;;;;;;10311418;28;20025;-61
2022/08/22 06:46:38;;;;;;;4.87;2.10;;;20.50;89.10;;;;;;10313444;28;20348;-61
2022/08/22 06:51:40;;;;;;;3.63;1.98;;;20.50;89.10;;;;;;10300746;28;20351;-63
2022/08/22 06:56:45;;;;;;;2.50;1.83;;;20.50;89.20;;;;;;10315960;28;20037;-61
2022/08/22 07:02:19;;;;;;;3.30;1.98;;;20.60;89.20;;;;;;10316788;28;20113;-61
2022/08/22 07:07:24;;;;;;;3.08;2.45;;;20.50;89.20;;;;;;10311739;28;20075;-63
2022/08/22 07:12:30;;;;;;;3.95;1.90;;;20.60;89.10;;;;;;10317049;28;20482;-63
2022/08/22 07:17:31;;;;;;;3.95;1.75;;;20.60;89.10;;;;;;10314210;28;20033;-64
2022/08/22 07:22:35;;;;;;;5.07;2.30;;;20.60;89.10;;;;;;10316474;28;20385;-64
2022/08/22 07:28:04;;;;;;;3.75;1.95;;;20.60;89.20;;;;;;10324626;28;20328;-64
2022/08/22 07:33:19;;;;;;;3.17;2.00;;;20.60;89.30;;;;;;10312384;28;20140;-63
2022/08/22 07:38:41;;;;;;;5.22;2.05;;;20.60;89.30;;;;;;10333739;28;20405;-63
2022/08/22 07:44:06;;;;;;;4.63;2.05;;;20.60;89.40;;;;;;10357845;28;20029;-64
2022/08/22 07:49:19;;;;;;;2.85;1.92;;;20.60;89.30;;;;;;10355554;28;20828;-64
2022/08/22 07:54:49;;;;;;;4.63;1.70;;;20.60;89.30;;;;;;10359452;28;20614;-64
2022/08/22 07:59:56;;;;;;;2.90;2.30;;;20.60;89.40;;;;;;10356319;28;20241;-64
2022/08/22 08:04:59;;;;;;;5.20;2.30;;;20.60;89.40;;;;;;10356159;28;20029;-64
2022/08/22 08:10:07;;;;;;;3.83;1.92;;;20.60;89.30;;;;;;10354900;28;20033;-64
2022/08/22 08:15:14;;;;;;;2.28;1.75;;;20.70;89.30;;;;;;10347953;28;20036;-65
2022/08/22 08:20:19;;;;;;;2.70;1.73;;;20.70;89.20;;;;;;10334524;28;20544;-63
2022/08/22 08:25:24;;;;;;;2.85;1.70;;;20.70;89.20;;;;;;10355371;28;20118;-65
2022/08/22 08:30:51;;;;;;;2.30;1.70;;;20.80;89.20;;;;;;10353638;28;20443;-63
2022/08/22 08:36:30;;;;;;;2.67;1.53;;;20.80;89.20;;;;;;10354928;28;20394;-64
2022/08/22 08:42:01;;;;;;;2.63;1.50;;;20.90;89.20;;;;;;10354339;28;20060;-62
2022/08/22 08:47:20;;;;;;;2.05;1.50;;;21.00;89.10;;;;;;10354550;28;20029;-62
2022/08/22 08:52:40;;;;;;;4.25;1.70;;;21.00;89.00;;;;;;10369203;28;20576;-62
2022/08/22 08:57:59;;;;;;;3.85;1.83;;;21.00;88.80;;;;;;10359749;28;20587;-61
2022/08/22 09:03:28;;;;;;;2.17;1.45;;;21.00;88.80;;;;;;10352795;28;20642;-62
2022/08/22 09:09:06;;;;;;;3.08;1.67;;;21.00;88.70;;;;;;10352511;28;20037;-63
2022/08/22 09:14:25;;;;;;;;;;;21.10;88.80;;;;;;10290363;28;20955;-61
2022/08/22 09:19:58;;;;;;;4.35;1.65;;;21.10;88.70;;;;;;10354051;28;19921;-64
2022/08/22 09:25:17;;;;;;;4.63;1.70;;;21.20;88.50;;;;;;10349178;28;20135;-61
2022/08/22 09:30:22;;;;;;;2.83;1.55;;;21.20;88.50;;;;;;10349502;28;20096;-61
2022/08/22 09:35:38;;;;;;;3.05;1.33;;;21.20;88.40;;;;;;10328498;28;20040;-62
2022/08/22 09:40:55;;;;;;;2.22;1.40;;;21.20;88.40;;;;;;10316318;28;20059;-62
2022/08/22 09:46:24;;;;;;;5.72;2.00;;;21.20;88.40;;;;;;10319238;28;20583;-62
2022/08/22 09:51:34;;;;;;;2.88;1.40;;;21.30;88.40;;;;;;10318220;28;20044;-64
2022/08/22 09:56:46;;;;;;;1.67;1.40;;;21.30;88.30;;;;;;10324257;28;20132;-61
2022/08/22 10:02:16;;;;;;;3.55;1.70;;;21.30;88.30;;;;;;10327807;28;20492;-63
2022/08/22 10:07:36;;;;;;;2.88;1.60;;;21.30;88.20;;;;;;10318168;28;20044;-61
2022/08/22 10:12:58;;;;;;;2.90;1.33;;;21.40;88.20;;;;;;10317793;28;20033;-61
2022/08/22 10:18:05;;;;;;;3.45;1.40;;;21.40;88.00;;;;;;10317984;28;20100;-62
2022/08/22 10:23:28;;;;;;;4.90;2.03;;;21.50;87.90;;;;;;10317844;28;20436;-66
2022/08/22 10:28:45;;;;;;;2.30;1.45;;;21.60;87.90;;;;;;10324232;28;20413;-63
2022/08/22 10:34:06;;;;;;;3.83;1.38;;;21.70;87.80;;;;;;10306835;28;20174;-62
2022/08/22 10:39:12;;;;;;;4.45;1.63;;;21.70;87.50;;;;;;10301856;28;20548;-62
2022/08/22 10:44:31;;;;;;;4.90;1.80;;;21.90;87.40;;;;;;10349005;28;20529;-64
2022/08/22 10:49:53;;;;;;;3.70;1.50;;;21.80;87.50;;;;;;10343633;28;20114;-63
2022/08/22 10:54:59;;;;;;;2.67;1.50;;;21.90;87.20;;;;;;10339631;28;20033;-63
2022/08/22 11:00:10;;;;;;;3.10;1.50;;;21.90;87.00;;;;;;10347966;28;20556;-67
2022/08/22 11:05:43;;;;;;;3.15;1.52;;;21.90;86.80;;;;;;10352381;28;21058;-62
2022/08/22 11:11:05;;;;;;;3.70;1.75;;;22.00;86.60;;;;;;10350666;28;20365;-64
2022/08/22 11:16:26;;;;;;;3.55;1.70;;;22.00;86.40;;;;;;10356598;28;20106;-62
2022/08/22 11:21:41;;;;;;;2.75;1.85;;;22.10;86.00;;;;;;10331142;28;20705;-61
2022/08/22 11:26:59;;;;;;;7.72;1.50;;;22.30;85.20;;;;;;10361452;28;20263;-65
2022/08/22 11:32:00;;;;;;;;;;;22.40;84.50;;;;;;10351965;28;20828;-65
2022/08/22 11:37:45;;;;;;;3.13;1.45;;;22.50;84.50;;;;;;10355684;28;19943;-65
2022/08/22 11:42:56;;;;;;;4.00;1.60;;;22.50;83.90;;;;;;10273241;28;20377;-65
2022/08/22 11:47:56;;;;;;;5.40;1.80;;;22.40;84.30;;;;;;10364753;28;20147;-65
2022/08/22 11:53:10;;;;;;;7.80;2.30;;;22.40;84.70;;;;;;10368304;28;20463;-65
2022/08/22 11:58:26;;;;;;;4.90;1.80;;;22.50;84.50;;;;;;10361775;28;20656;-64
2022/08/22 12:03:41;;;;;;;4.30;1.92;;;22.60;85.10;;;;;;10357755;28;20152;-65
2022/08/22 12:08:49;;;;;;;5.32;2.10;;;22.80;84.80;;;;;;10360803;28;20115;-69
2022/08/22 12:14:13;;;;;;;;;;;23.00;84.40;;;;;;10358020;28;20191;-65
2022/08/22 12:19:39;;;;;;;4.57;1.98;;;23.10;83.70;;;;;;10358090;28;19920;-65
2022/08/22 12:25:15;;;;;;;5.25;2.00;;;23.20;82.90;;;;;;10360156;28;20428;-64
2022/08/22 12:30:30;;;;;;;4.95;2.05;;;23.30;80.80;;;;;;10356339;28;20560;-65
2022/08/22 12:36:03;;;;;;;6.22;2.03;;;23.30;81.90;;;;;;10360740;28;20034;-65
2022/08/22 12:41:12;;;;;;;4.18;1.90;;;23.40;82.20;;;;;;10348736;28;20157;-64
2022/08/22 12:46:45;;;;;;;5.72;2.28;;;23.40;81.90;;;;;;10356314;28;20492;-66
2022/08/22 12:52:04;;;;;;;4.63;2.00;;;23.30;81.40;;;;;;10362803;28;20025;-64
2022/08/22 12:57:44;;;;;;;4.93;2.45;;;23.40;81.50;;;;;;10339245;28;20362;-65
2022/08/22 13:02:49;;;;;;;4.75;1.83;;;23.70;81.10;;;;;;10314750;28;20111;-65
2022/08/22 13:08:15;;;;;;;18.92;3.75;;;23.70;81.30;;;;;;10357039;28;20045;-66
2022/08/22 13:13:31;;;;;;;3.95;2.00;;;24.00;80.70;;;;;;10348008;28;20461;-65
2022/08/22 13:18:54;;;;;;;6.07;2.30;;;24.00;79.80;;;;;;10339387;28;20420;-65
2022/08/22 13:24:02;;;;;;;4.93;1.85;;;24.10;80.30;;;;;;10351855;28;20626;-65
2022/08/22 13:29:24;;;;;;;4.68;2.03;;;24.20;80.20;;;;;;10359272;28;20029;-65
2022/08/22 13:34:36;;;;;;;3.55;2.40;;;24.30;79.50;;;;;;10357580;28;20521;-66
2022/08/22 13:39:42;;;;;;;6.95;2.38;;;24.40;78.40;;;;;;10350626;28;20130;-66
2022/08/22 13:44:48;;;;;;;7.78;1.90;;;24.60;78.30;;;;;;10353211;28;20114;-65
2022/08/22 13:49:50;;;;;;;6.63;2.20;;;24.70;78.20;;;;;;10349312;28;20040;-66
2022/08/22 13:55:18;;;;;;;5.53;2.33;;;24.80;78.10;;;;;;10357747;28;20083;-65
2022/08/22 14:00:54;;;;;;;4.75;2.10;;;25.00;76.60;;;;;;10346074;28;20025;-65
2022/08/22 14:05:57;;;;;;;3.83;1.90;;;25.30;76.70;;;;;;10254814;28;20048;-66
2022/08/22 14:11:34;;;;;;;6.28;2.50;;;25.50;76.30;;;;;;10348098;28;20830;-65
2022/08/22 14:16:47;;;;;;;4.70;1.95;;;25.60;75.20;;;;;;10352100;28;20064;-65
2022/08/22 14:21:57;;;;;;;5.65;2.33;;;25.60;75.60;;;;;;10350601;28;20394;-66
2022/08/22 14:27:03;;;;;;;7.72;2.08;;;25.60;75.70;;;;;;10349410;28;20192;-65
2022/08/22 14:32:11;;;;;;;4.53;2.60;;;25.50;75.60;;;;;;10349262;28;20037;-66
2022/08/22 14:37:22;;;;;;;4.63;1.97;;;25.30;75.90;;;;;;10335275;28;20470;-66
2022/08/22 14:42:29;;;;;;;5.28;2.45;;;25.40;75.40;;;;;;10347578;28;20674;-66
2022/08/22 14:47:45;;;;;;;9.07;3.28;;;25.70;74.80;;;;;;10329166;28;20049;-66
2022/08/22 14:53:01;;;;;;;9.07;2.53;;;25.80;72.60;;;;;;10346897;28;20033;-66
2022/08/22 14:58:06;;;;;;;4.75;2.20;;;26.00;74.30;;;;;;10326970;28;20037;-66
2022/08/22 15:03:10;;;;;;;3.97;1.67;;;26.20;74.00;;;;;;10351094;28;20208;-65
2022/08/22 15:08:22;;;;;;;7.70;1.98;;;26.40;72.70;;;;;;10356769;28;20096;-64
2022/08/22 15:13:24;;;;;;;7.32;2.50;;;26.00;72.10;;;;;;10355331;28;20403;-65
2022/08/22 15:18:28;;;;;;;4.55;2.08;;;25.80;72.70;;;;;;10332581;28;20033;-65
2022/08/22 15:23:30;;;;;;;6.07;2.25;;;25.80;71.30;;;;;;10344120;28;20059;-64
2022/08/22 15:28:35;;;;;;;6.20;2.38;;;25.90;71.90;;;;;;10363249;28;20118;-65
2022/08/22 15:33:43;;;;;;;5.93;2.50;;;26.00;71.60;;;;;;10359977;28;20113;-65
2022/08/22 15:38:52;;;;;;;3.63;1.73;;;25.90;71.90;;;;;;10360555;28;20445;-65
2022/08/22 15:44:02;;;;;;;6.70;2.40;;;26.10;71.90;;;;;;10363399;28;20017;-65
2022/08/22 15:49:22;;;;;;;3.38;2.28;;;25.80;71.30;;;;;;10368453;28;20036;-66
2022/08/22 15:54:43;;;;;;;7.10;2.50;;;25.70;71.70;;;;;;10362744;28;20467;-66
2022/08/22 15:59:48;;;;;;;6.22;2.38;;;25.70;71.90;;;;;;10357290;28;20083;-65
2022/08/22 16:05:01;;;;;;;5.18;2.10;;;25.50;71.70;;;;;;10361126;28;20143;-65
2022/08/22 16:10:25;;;;;;;4.25;2.00;;;25.40;71.20;;;;;;10368428;28;20294;-65
2022/08/22 16:15:49;;;;;;;5.72;2.33;;;25.20;72.00;;;;;;10363707;28;20413;-66
2022/08/22 16:20:53;;;;;;;4.50;2.25;;;25.00;70.10;;;;;;10362422;28;20536;-67
2022/08/22 16:25:53;;;;;;;6.75;2.30;;;24.80;72.60;;;;;;10356964;28;20204;-65
2022/08/22 16:30:57;;;;;;;4.18;2.63;;;24.60;73.70;;;;;;10359769;28;20021;-65
2022/08/22 16:36:16;;;;;;;3.65;2.50;;;24.50;74.10;;;;;;10355496;28;20021;-65
2022/08/22 16:41:28;;;;;;;6.95;2.40;;;24.50;74.10;;;;;;10359191;28;20062;-64
2022/08/22 16:46:31;;;;;;;6.60;2.47;;;24.40;74.00;;;;;;10362691;28;20033;-64
2022/08/22 16:51:32;;;;;;;3.72;2.50;;;24.30;74.00;;;;;;10353791;28;20033;-63
2022/08/22 16:57:09;;;;;;;4.90;2.67;;;24.20;74.00;;;;;;10354118;28;20321;-65
2022/08/22 17:02:15;;;;;;;9.80;2.40;;;24.20;74.20;;;;;;10320971;28;20047;-64
2022/08/22 17:07:19;;;;;;;4.93;2.30;;;24.20;74.30;;;;;;10354111;28;20873;-64
2022/08/22 17:12:57;;;;;;;6.57;2.42;;;24.10;74.00;;;;;;10359846;28;20036;-64
2022/08/22 17:18:12;;;;;;;3.97;2.15;;;24.10;73.70;;;;;;10345175;28;20944;-64
2022/08/22 17:23:13;;;;;;;8.02;2.30;;;24.00;74.20;;;;;;10355285;28;20029;-64
2022/08/22 17:28:47;;;;;;;6.43;2.53;;;24.00;74.90;;;;;;10350796;28;20451;-64
2022/08/22 17:34:00;;;;;;;3.78;2.00;;;23.90;74.90;;;;;;10350030;28;20108;-65
2022/08/22 17:39:04;;;;;;;2.67;2.40;;;23.90;75.40;;;;;;10348354;28;20095;-65
2022/08/22 17:44:27;;;;;;;3.90;2.08;;;23.70;76.50;;;;;;10353278;28;20026;-65
2022/08/22 17:49:41;;;;;;;5.45;2.25;;;23.70;76.70;;;;;;10352920;28;20118;-64
2022/08/22 17:54:59;;;;;;;3.85;2.10;;;23.60;77.20;;;;;;10330844;28;20032;-64
2022/08/22 18:00:04;;;;;;;5.55;2.30;;;23.60;78.30;;;;;;10348866;28;20040;-64
2022/08/22 18:05:19;;;;;;;3.63;2.20;;;23.60;78.50;;;;;;10357436;28;20025;-65
2022/08/22 18:10:47;;;;;;;9.73;2.85;;;23.40;79.60;;;;;;10351313;28;20041;-64
2022/08/22 18:16:15;;;;;;;6.35;2.95;;;23.30;81.50;;;;;;10353698;28;20654;-64
2022/08/22 18:21:32;;;;;;;10.00;2.80;;;23.20;83.30;;;;;;10340973;28;20048;-65
2022/08/22 18:26:43;;;;;;;10.70;3.33;;;23.10;84.70;;;;;;10346341;28;20425;-63
2022/08/22 18:32:09;;;;;;;8.93;2.83;;;23.00;84.70;;;;;;10354572;28;20302;-63
2022/08/22 18:37:38;;;;;;;10.02;2.75;;;22.90;86.00;;;;;;10342683;28;20048;-63
2022/08/22 18:42:53;;;;;;;5.30;2.78;;;22.80;86.30;;;;;;10352672;28;20024;-64
2022/08/22 18:47:56;;;;;;;7.78;2.97;;;22.70;86.20;;;;;;10349029;28;20339;-63
2022/08/22 18:52:58;;;;;;;5.78;2.90;;;22.60;86.70;;;;;;10360663;28;20029;-63
2022/08/22 18:58:27;;;;;;;6.07;2.80;;;22.50;87.20;;;;;;10359069;28;20035;-63
2022/08/22 19:03:37;;;;;;;6.70;2.80;;;22.40;88.80;;;;;;10354898;28;20793;-63
2022/08/22 19:08:48;;;;;;;6.15;2.85;;;22.40;89.40;;;;;;10346763;28;20040;-63
2022/08/22 19:14:13;;;;;;;4.43;3.45;;;22.30;89.30;;;;;;10347519;28;20353;-63
2022/08/22 19:19:17;;;;;;;6.30;3.00;;;22.20;90.00;;;;;;10425830;28;20336;-62
2022/08/22 19:24:27;;;;;;;4.15;2.67;;;22.20;90.20;;;;;;10431310;28;20027;-61
2022/08/22 19:29:28;;;;;;;4.70;2.60;;;22.10;90.60;;;;;;10431866;28;20041;-61
2022/08/22 19:34:28;;;;;;;3.70;2.63;;;22.30;90.30;;;;;;10435325;28;20413;-61
2022/08/22 19:39:41;;;;;;;4.63;2.33;;;22.40;90.00;;;;;;10428506;28;20134;-61
2022/08/22 19:44:45;;;;;;;3.70;2.33;;;22.50;90.00;;;;;;10429809;28;20473;-61
2022/08/22 19:50:16;;;;;;;3.97;2.50;;;22.60;89.50;;;;;;10429764;28;20050;-61
2022/08/22 19:55:31;;;;;;;3.45;2.55;;;22.70;89.70;;;;;;10429013;28;20040;-61
2022/08/22 20:00:57;;;;;;;7.43;2.58;;;22.80;89.30;;;;;;10426311;28;20119;-61
2022/08/22 20:06:21;;;;;;;3.38;2.30;;;22.80;89.10;;;;;;10434830;28;20025;-61
2022/08/22 20:11:48;;;;;;;3.30;2.25;;;22.90;89.20;;;;;;10439348;28;20400;-61
2022/08/22 20:17:00;;;;;;;3.50;2.20;;;22.80;88.90;;;;;;10436104;28;20028;-60
2022/08/22 20:22:04;;;;;;;5.22;2.67;;;22.90;88.90;;;;;;10438689;28;20501;-61
2022/08/22 20:27:13;;;;;;;3.63;2.42;;;22.90;88.70;;;;;;10435001;28;20110;-61
2022/08/22 20:32:16;;;;;;;4.32;2.83;;;22.90;88.70;;;;;;10436855;28;20021;-61
2022/08/22 20:37:24;;;;;;;4.13;2.58;;;22.90;89.20;;;;;;10437780;28;20055;-61
2022/08/22 20:42:30;;;;;;;5.75;2.70;;;22.80;88.60;;;;;;10444646;28;20045;-61
2022/08/22 20:47:31;;;;;;;3.20;2.58;;;22.80;88.50;;;;;;10438572;28;20056;-61
2022/08/22 20:52:43;;;;;;;3.05;2.03;;;22.80;88.50;;;;;;10438795;28;20401;-61
2022/08/22 20:58:16;;;;;;;3.15;2.13;;;22.80;88.50;;;;;;10442698;28;20500;-61
2022/08/22 21:03:39;;;;;;;4.07;2.45;;;22.90;88.60;;;;;;10444796;28;20152;-61
2022/08/22 21:08:42;;;;;;;3.83;2.50;;;22.80;88.50;;;;;;10443968;28;20036;-62
2022/08/22 21:13:43;;;;;;;4.80;2.63;;;22.80;88.50;;;;;;10424248;28;20037;-61
2022/08/22 21:18:48;;;;;;;3.22;2.47;;;22.80;88.40;;;;;;10440211;28;20033;-62
2022/08/22 21:23:51;;;;;;;3.38;2.53;;;22.80;88.40;;;;;;10436335;28;20048;-61
2022/08/22 21:29:17;;;;;;;4.05;2.47;;;22.80;88.40;;;;;;10435522;28;20493;-62
2022/08/22 21:34:27;;;;;;;3.63;2.58;;;22.80;88.50;;;;;;10436677;28;20036;-62
2022/08/22 21:39:35;;;;;;;3.05;2.60;;;22.70;88.40;;;;;;10431876;28;20508;-61
2022/08/22 21:44:40;;;;;;;;;;;22.70;88.40;;;;;;10438758;28;20029;-62
2022/08/22 21:50:04;;;;;;;3.10;2.60;;;22.70;88.50;;;;;;10439559;28;19916;-62
2022/08/22 21:55:27;;;;;;;4.65;2.78;;;22.70;88.50;;;;;;10438265;28;20393;-62
2022/08/22 22:00:59;;;;;;;3.38;2.50;;;22.70;88.50;;;;;;10432454;28;20065;-61
2022/08/22 22:06:02;;;;;;;3.95;2.60;;;22.70;88.60;;;;;;10433061;28;20401;-61
2022/08/22 22:11:10;;;;;;;5.22;2.75;;;22.60;88.60;;;;;;10447131;28;20064;-61
2022/08/22 22:16:11;;;;;;;;;;;22.60;88.60;;;;;;10444035;28;20492;-61
2022/08/22 22:21:12;;;;;;;3.83;2.17;;;22.50;88.60;;;;;;10443212;28;19917;-61
2022/08/22 22:26:12;;;;;;;3.65;2.40;;;22.50;88.60;;;;;;10440587;28;20060;-62
2022/08/22 22:31:15;;;;;;;3.97;2.30;;;22.50;88.60;;;;;;10438070;28;20028;-61
2022/08/22 22:36:19;;;;;;;3.88;2.60;;;22.50;88.70;;;;;;10451040;28;20064;-62
2022/08/22 22:41:24;;;;;;;3.67;2.47;;;22.50;88.80;;;;;;10435965;28;20124;-62
2022/08/22 22:46:27;;;;;;;4.05;2.42;;;22.50;88.80;;;;;;10435488;28;20123;-61
2022/08/22 22:51:28;;;;;;;3.63;2.53;;;22.40;88.90;;;;;;10436103;28;20033;-62
2022/08/22 22:56:29;;;;;;;6.60;2.92;;;22.40;88.90;;;;;;10433878;28;20447;-62
2022/08/22 23:01:30;;;;;;;4.18;2.40;;;22.40;89.00;;;;;;10440214;28;20452;-62
2022/08/22 23:06:31;;;;;;;3.22;2.55;;;22.40;89.00;;;;;;10432571;28;20046;-61
2022/08/22 23:11:32;;;;;;;3.20;2.72;;;22.30;89.00;;;;;;10439866;28;20029;-61
2022/08/22 23:16:33;;;;;;;3.60;2.70;;;22.30;89.10;;;;;;10437737;28;20472;-61
2022/08/22 23:21:33;;;;;;;4.38;2.47;;;22.30;89.20;;;;;;10439004;28;20032;-62
2022/08/22 23:26:35;;;;;;;5.00;2.55;;;22.30;89.30;;;;;;10436393;28;20067;-61
2022/08/22 23:31:51;;;;;;;5.05;2.75;;;22.20;89.30;;;;;;10436572;28;20392;-61
2022/08/22 23:36:54;;;;;;;5.47;2.90;;;22.20;89.40;;;;;;10436566;28;20084;-61
2022/08/22 23:41:55;;;;;;;2.92;2.63;;;22.20;89.40;;;;;;10434374;28;20033;-62
2022/08/22 23:46:57;;;;;;;5.45;2.97;;;22.20;89.50;;;;;;10449999;28;20064;-63
2022/08/22 23:51:58;;;;;;;4.97;3.03;;;22.20;89.50;;;;;;10447870;28;20120;-61
2022/08/22 23:57:02;;;;;;;5.75;2.85;;;22.10;89.50;;;;;;10448634;28;20127;-61
